Time;durP1;ratioP1;P1;durP2;ratioP2;P2;SDS_P1;SDS_P2;PMS_P1;PMS_P2;Temp;Humidity;BMP_temperature;BMP_pressure;BME280_temperature;BME280_humidity;BME280_pressure;Samples;Min_cycle;Max_cycle;Signal;HPM_P1;HPM_P2
2022/06/13 00:00:31;;;;;;;2.35;1.73;;;21.10;59.70;;;;;;5042020;28;43783;-61
2022/06/13 00:02:59;;;;;;;2.70;1.90;;;21.10;59.70;;;;;;5038969;28;43458;-61
2022/06/13 00:05:34;;;;;;;2.15;1.95;;;21.10;59.70;;;;;;5043854;28;43452;-61
2022/06/13 00:08:01;;;;;;;2.13;1.83;;;21.10;59.70;;;;;;5043360;28;43451;-61
2022/06/13 00:10:29;;;;;;;2.58;1.73;;;21.10;59.70;;;;;;5041735;28;45194;-61
2022/06/13 00:12:56;;;;;;;2.08;1.88;;;21.00;59.60;;;;;;5043170;28;43965;-61
2022/06/13 00:15:24;;;;;;;3.00;1.92;;;21.00;59.70;;;;;;5043395;28;43478;-61
2022/06/13 00:17:51;;;;;;;3.35;2.40;;;21.00;59.70;;;;;;5043161;28;43443;-61
2022/06/13 00:20:19;;;;;;;2.40;2.10;;;21.00;59.70;;;;;;5041670;28;43787;-61
2022/06/13 00:22:46;;;;;;;2.72;1.90;;;21.00;59.70;;;;;;5042990;28;43507;-61
2022/06/13 00:25:16;;;;;;;2.30;1.67;;;21.00;59.70;;;;;;5042885;28;43460;-61
2022/06/13 00:27:44;;;;;;;2.42;1.80;;;21.00;59.70;;;;;;5042973;28;43502;-61
2022/06/13 00:30:12;;;;;;;2.33;1.90;;;21.00;59.70;;;;;;5041926;28;44731;-61
2022/06/13 00:32:39;;;;;;;2.05;1.85;;;21.00;59.70;;;;;;5041655;28;43567;-61
2022/06/13 00:35:08;;;;;;;1.92;1.77;;;21.00;59.70;;;;;;5042791;28;43460;-61
2022/06/13 00:37:35;;;;;;;3.00;1.98;;;21.00;59.70;;;;;;5042941;28;43536;-61
2022/06/13 00:40:04;;;;;;;2.15;1.95;;;21.00;59.70;;;;;;5041485;28;43744;-61
2022/06/13 00:42:32;;;;;;;2.33;2.00;;;21.00;59.70;;;;;;5041626;28;44068;-61
2022/06/13 00:45:12;;;;;;;2.35;2.00;;;20.90;59.70;;;;;;5042542;28;43453;-61
2022/06/13 00:47:41;;;;;;;2.40;2.10;;;20.90;59.70;;;;;;5041413;28;43633;-61
2022/06/13 00:50:13;;;;;;;2.92;1.90;;;20.90;59.70;;;;;;5043174;28;43806;-61
2022/06/13 00:52:47;;;;;;;2.63;1.90;;;20.90;59.70;;;;;;5042692;28;44003;-61
2022/06/13 00:55:22;;;;;;;2.22;1.80;;;20.90;59.70;;;;;;5042708;28;43482;-61
2022/06/13 00:57:49;;;;;;;2.85;1.88;;;20.90;59.70;;;;;;5042052;28;44018;-61
2022/06/13 01:00:19;;;;;;;2.58;2.10;;;20.90;59.70;;;;;;5042519;28;43812;-61
2022/06/13 01:02:50;;;;;;;2.90;2.00;;;20.90;59.70;;;;;;5042140;28;44021;-61
2022/06/13 01:05:23;;;;;;;2.20;2.00;;;20.90;59.70;;;;;;5030870;28;43483;-61
2022/06/13 01:07:53;;;;;;;2.75;2.00;;;20.90;59.70;;;;;;5042626;28;43485;-62
2022/06/13 01:13:10;;;;;;;2.45;1.90;;;20.80;60.30;;;;;;5041106;28;43460;-61
2022/06/13 01:15:56;;;;;;;3.03;1.92;;;20.80;59.70;;;;;;5034424;28;43531;-61
2022/06/13 01:18:26;;;;;;;2.55;1.77;;;20.80;59.70;;;;;;5034604;28;43374;-61
2022/06/13 01:21:11;;;;;;;2.53;2.10;;;20.80;59.70;;;;;;5041708;28;45017;-61
2022/06/13 01:24:04;;;;;;;3.58;2.47;;;20.80;59.70;;;;;;5033277;28;44040;-61
2022/06/13 01:27:09;;;;;;;2.40;1.80;;;20.80;59.70;;;;;;5069110;28;43469;-61
2022/06/13 01:29:44;;;;;;;2.00;1.77;;;20.80;59.70;;;;;;5029993;28;43523;-61
2022/06/13 01:32:43;;;;;;;2.30;2.10;;;20.80;59.70;;;;;;5041914;28;44296;-61
2022/06/13 01:35:19;;;;;;;2.17;1.98;;;20.80;59.70;;;;;;5042006;28;43658;-61
2022/06/13 01:38:14;;;;;;;2.92;1.92;;;20.80;59.70;;;;;;5031994;28;43459;-61
2022/06/13 01:40:44;;;;;;;2.22;2.10;;;20.80;59.70;;;;;;5038881;28;43491;-61
2022/06/13 01:43:22;;;;;;;2.97;2.13;;;20.80;59.80;;;;;;5033829;28;45009;-61
2022/06/13 01:46:12;;;;;;;2.40;1.90;;;20.70;59.70;;;;;;5032873;28;43462;-61
2022/06/13 01:48:52;;;;;;;2.35;2.15;;;20.70;59.70;;;;;;5040796;28;43469;-61
2022/06/13 01:51:29;;;;;;;2.00;1.80;;;20.70;59.80;;;;;;5043671;28;43540;-61
2022/06/13 01:54:14;;;;;;;3.50;2.00;;;20.70;59.80;;;;;;5045234;28;43966;-61
2022/06/13 01:56:54;;;;;;;1.92;1.73;;;20.70;59.80;;;;;;5044892;28;43454;-61
2022/06/13 01:59:35;;;;;;;2.42;1.90;;;20.70;59.70;;;;;;5045467;28;43530;-61
2022/06/13 02:02:14;;;;;;;2.25;1.90;;;20.70;59.70;;;;;;5040364;28;43493;-61
2022/06/13 02:05:00;;;;;;;2.10;1.90;;;20.70;59.70;;;;;;5045413;28;44037;-61
2022/06/13 02:07:33;;;;;;;2.88;2.13;;;20.70;59.70;;;;;;5044753;28;44170;-61
2022/06/13 02:10:32;;;;;;;2.97;2.25;;;20.70;59.70;;;;;;5042940;28;43431;-61
2022/06/13 02:13:07;;;;;;;1.92;1.83;;;20.70;59.70;;;;;;5045164;28;43451;-61
2022/06/13 02:15:40;;;;;;;2.30;1.80;;;20.70;59.70;;;;;;5045751;28;44036;-61
2022/06/13 02:18:25;;;;;;;2.38;2.00;;;20.70;59.80;;;;;;5043907;28;43467;-61
2022/06/13 02:20:59;;;;;;;1.98;1.80;;;20.70;59.70;;;;;;5041245;28;43525;-61
2022/06/13 02:23:32;;;;;;;2.65;1.95;;;20.70;59.70;;;;;;5045443;28;43543;-61
2022/06/13 02:26:05;;;;;;;1.70;1.60;;;20.70;59.70;;;;;;5043141;28;44386;-61
2022/06/13 02:28:57;;;;;;;2.00;1.80;;;20.70;59.70;;;;;;5043976;28;44001;-61
2022/06/13 02:31:39;;;;;;;3.53;1.95;;;20.60;59.70;;;;;;5044653;28;43434;-61
2022/06/13 02:34:15;;;;;;;2.17;1.60;;;20.60;59.70;;;;;;5044239;28;43597;-61
2022/06/13 02:37:00;;;;;;;2.13;1.88;;;20.60;59.70;;;;;;5044289;28;43798;-61
2022/06/13 02:39:36;;;;;;;2.05;1.85;;;20.60;59.70;;;;;;5045094;28;43483;-61
2022/06/13 02:42:23;;;;;;;2.28;2.08;;;20.60;59.80;;;;;;5044945;28;43467;-61
2022/06/13 02:45:13;;;;;;;2.00;1.85;;;20.70;59.80;;;;;;5044643;28;43450;-61
2022/06/13 02:47:49;;;;;;;2.15;1.83;;;20.60;59.80;;;;;;5043362;28;44672;-61
2022/06/13 02:50:20;;;;;;;2.35;1.80;;;20.60;59.70;;;;;;5044212;28;44151;-61
2022/06/13 02:53:10;;;;;;;2.80;1.83;;;20.60;59.80;;;;;;5044686;28;43449;-61
2022/06/13 02:55:46;;;;;;;2.00;1.80;;;20.60;59.70;;;;;;5042714;28;43467;-62
2022/06/13 02:58:16;;;;;;;1.88;1.70;;;20.60;59.80;;;;;;5044071;28;45000;-62
2022/06/13 03:00:54;;;;;;;3.15;2.08;;;20.60;59.80;;;;;;5044117;28;43993;-62
2022/06/13 03:03:28;;;;;;;2.00;1.80;;;20.60;59.80;;;;;;5042621;28;43444;-61
2022/06/13 03:06:31;;;;;;;2.72;1.80;;;20.60;59.80;;;;;;5076618;28;44082;-62
2022/06/13 03:09:14;;;;;;;2.13;1.85;;;20.60;59.70;;;;;;5044287;28;43882;-61
2022/06/13 03:11:48;;;;;;;1.95;1.73;;;20.60;59.80;;;;;;5032601;28;43724;-61
2022/06/13 03:14:27;;;;;;;2.03;1.92;;;20.60;59.80;;;;;;5044392;28;43460;-62
2022/06/13 03:17:04;;;;;;;1.90;1.80;;;20.60;59.80;;;;;;5043656;28;43547;-61
2022/06/13 03:19:53;;;;;;;2.05;1.77;;;20.60;59.80;;;;;;5043525;28;44180;-61
2022/06/13 03:22:54;;;;;;;2.00;1.80;;;20.60;59.80;;;;;;5043713;28;43723;-61
2022/06/13 03:25:51;;;;;;;1.77;1.65;;;20.50;59.80;;;;;;5043183;28;44080;-61
2022/06/13 03:28:27;;;;;;;2.65;1.70;;;20.50;59.80;;;;;;5041845;28;43476;-61
2022/06/13 03:31:24;;;;;;;2.28;1.80;;;20.50;59.80;;;;;;5042055;28;44735;-61
2022/06/13 03:33:58;;;;;;;2.58;2.00;;;20.50;59.80;;;;;;5039626;28;43447;-61
2022/06/13 03:36:37;;;;;;;1.75;1.65;;;20.50;59.80;;;;;;5038792;28;43403;-61
2022/06/13 03:39:19;;;;;;;1.70;1.60;;;20.50;59.80;;;;;;5043745;28;43425;-61
2022/06/13 03:41:53;;;;;;;1.95;1.80;;;20.50;59.80;;;;;;5041937;28;44651;-61
2022/06/13 03:44:47;;;;;;;1.80;1.70;;;20.50;59.80;;;;;;5025884;28;45172;-61
2022/06/13 03:47:40;;;;;;;2.65;1.92;;;20.50;59.80;;;;;;5031268;28;43491;-61
2022/06/13 03:50:11;;;;;;;1.73;1.50;;;20.50;59.80;;;;;;5043521;28;43517;-61
2022/06/13 03:52:44;;;;;;;3.78;2.05;;;20.50;59.80;;;;;;5043305;28;44009;-61
2022/06/13 03:55:28;;;;;;;2.08;1.88;;;20.50;59.80;;;;;;5043208;28;43414;-61
2022/06/13 03:58:04;;;;;;;2.00;1.88;;;20.50;59.80;;;;;;5043741;28;43445;-61
2022/06/13 04:00:39;;;;;;;2.55;2.05;;;20.50;59.90;;;;;;5042016;28;43434;-61
2022/06/13 04:03:07;;;;;;;2.10;1.90;;;20.50;59.90;;;;;;5034241;28;43810;-62
2022/06/13 04:05:53;;;;;;;2.08;1.65;;;20.40;59.80;;;;;;5023330;28;44171;-61
2022/06/13 04:08:21;;;;;;;2.03;1.65;;;20.50;59.80;;;;;;5020789;28;43473;-62
2022/06/13 04:11:09;;;;;;;2.60;1.77;;;20.40;60.40;;;;;;5023164;28;43476;-61
2022/06/13 04:14:15;;;;;;;2.08;1.88;;;20.50;59.90;;;;;;5021900;28;44654;-61
2022/06/13 04:16:52;;;;;;;2.70;1.83;;;20.40;59.80;;;;;;5015599;28;43444;-61
2022/06/13 04:19:35;;;;;;;2.17;1.67;;;20.40;59.80;;;;;;5023290;28;43440;-62
2022/06/13 04:22:02;;;;;;;2.67;1.90;;;20.40;59.80;;;;;;5022279;28;43571;-61
2022/06/13 04:24:46;;;;;;;2.38;1.73;;;20.40;59.90;;;;;;5010104;28;45367;-61
2022/06/13 04:27:28;;;;;;;1.92;1.65;;;20.40;59.80;;;;;;5021226;28;43578;-62
2022/06/13 04:29:58;;;;;;;1.70;1.60;;;20.40;59.90;;;;;;5022308;28;43417;-61
2022/06/13 04:32:34;;;;;;;2.00;1.83;;;20.40;60.00;;;;;;5023088;28;43502;-61
2022/06/13 04:35:04;;;;;;;1.83;1.58;;;20.40;59.80;;;;;;5023621;28;44984;-61
2022/06/13 04:37:33;;;;;;;2.57;1.80;;;20.40;59.80;;;;;;5018917;28;43962;-61
2022/06/13 04:40:05;;;;;;;1.48;1.38;;;20.40;59.80;;;;;;5032531;28;43427;-61
2022/06/13 04:42:38;;;;;;;1.70;1.50;;;20.40;59.80;;;;;;5023262;28;43410;-62
2022/06/13 04:45:34;;;;;;;2.45;1.90;;;20.40;59.80;;;;;;5023404;28;44721;-61
2022/06/13 04:48:01;;;;;;;2.45;1.60;;;20.40;59.80;;;;;;5013817;28;44179;-62
2022/06/13 04:50:42;;;;;;;1.98;1.48;;;20.30;59.80;;;;;;5012582;28;43489;-62
2022/06/13 04:53:17;;;;;;;2.30;1.65;;;20.40;59.80;;;;;;5022958;28;43566;-62
2022/06/13 04:55:50;;;;;;;1.63;1.45;;;20.30;59.80;;;;;;5022179;28;43697;-62
2022/06/13 04:58:39;;;;;;;1.70;1.60;;;20.30;59.90;;;;;;5026290;28;43765;-62
2022/06/13 05:01:24;;;;;;;1.42;1.33;;;20.30;59.80;;;;;;5021819;28;43980;-61
2022/06/13 05:03:54;;;;;;;2.90;2.03;;;20.30;59.90;;;;;;5032124;28;43638;-62
2022/06/13 05:06:39;;;;;;;1.65;1.50;;;20.30;59.90;;;;;;5042383;28;43810;-61
2022/06/13 05:09:10;;;;;;;2.00;1.50;;;20.30;59.90;;;;;;5039728;28;43476;-62
2022/06/13 05:11:46;;;;;;;1.67;1.55;;;20.30;59.90;;;;;;5030047;28;43470;-62
2022/06/13 05:14:28;;;;;;;1.85;1.45;;;20.30;59.80;;;;;;5042568;28;43374;-61
2022/06/13 05:17:01;;;;;;;;;;;20.30;59.90;;;;;;5042107;28;43885;-62
2022/06/13 05:19:39;;;;;;;1.85;1.70;;;20.30;60.00;;;;;;5042452;28;43495;-62
2022/06/13 05:22:32;;;;;;;1.55;1.45;;;20.30;60.00;;;;;;5042148;28;43435;-62
2022/06/13 05:25:37;;;;;;;3.03;1.58;;;20.30;59.90;;;;;;5041657;28;44126;-62
2022/06/13 05:28:05;;;;;;;2.45;1.40;;;20.30;60.00;;;;;;5037089;28;43792;-62
2022/06/13 05:30:33;;;;;;;1.92;1.40;;;20.30;60.00;;;;;;5045521;28;43886;-62
2022/06/13 05:33:05;;;;;;;2.17;1.65;;;20.30;60.10;;;;;;5044921;28;43440;-62
2022/06/13 05:35:35;;;;;;;1.73;1.45;;;20.30;60.20;;;;;;5045558;28;43455;-62
2022/06/13 05:38:04;;;;;;;2.35;1.40;;;20.30;60.10;;;;;;5045033;28;44361;-62
2022/06/13 05:40:32;;;;;;;2.60;1.30;;;20.30;60.10;;;;;;5044463;28;43925;-62
2022/06/13 05:42:59;;;;;;;1.40;1.33;;;20.30;60.10;;;;;;5044984;28;43391;-61
2022/06/13 05:45:27;;;;;;;1.38;1.02;;;20.30;60.10;;;;;;5045341;28;43507;-62
2022/06/13 05:47:54;;;;;;;1.30;1.20;;;20.30;60.10;;;;;;5045737;28;43792;-62
2022/06/13 05:50:24;;;;;;;1.60;1.35;;;20.20;60.00;;;;;;5046138;28;43802;-62
2022/06/13 05:52:52;;;;;;;1.98;1.40;;;20.20;60.00;;;;;;5045287;28;43442;-62
2022/06/13 05:55:21;;;;;;;1.10;1.00;;;20.20;60.00;;;;;;5034487;28;43589;-62
2022/06/13 05:58:04;;;;;;;1.45;1.15;;;20.20;60.00;;;;;;5045406;28;45280;-62
2022/06/13 06:00:37;;;;;;;2.33;1.40;;;20.20;60.00;;;;;;5043857;28;43520;-63
2022/06/13 06:03:04;;;;;;;1.70;1.20;;;20.20;60.10;;;;;;5043898;28;43505;-63
2022/06/13 06:05:32;;;;;;;1.30;1.20;;;20.20;60.80;;;;;;5038983;28;43668;-63
2022/06/13 06:08:00;;;;;;;1.40;1.30;;;20.20;60.20;;;;;;5044993;28;43805;-62
2022/06/13 06:10:31;;;;;;;1.48;1.10;;;20.20;60.20;;;;;;5044207;28;43415;-62
2022/06/13 06:12:59;;;;;;;2.03;1.63;;;20.20;60.30;;;;;;5045177;28;43429;-62
2022/06/13 06:15:27;;;;;;;1.75;1.20;;;20.20;60.30;;;;;;5045073;28;43454;-62
2022/06/13 06:17:54;;;;;;;1.23;1.10;;;20.20;60.20;;;;;;5044291;28;43957;-62
2022/06/13 06:20:24;;;;;;;1.50;1.02;;;20.20;60.30;;;;;;5044241;28;44024;-62
2022/06/13 06:22:52;;;;;;;1.58;1.30;;;20.20;60.30;;;;;;5042256;28;43469;-62
2022/06/13 06:25:19;;;;;;;1.27;1.00;;;20.20;60.40;;;;;;5045750;28;43443;-62
2022/06/13 06:27:47;;;;;;;1.17;1.08;;;20.20;60.40;;;;;;5040391;28;43974;-62
2022/06/13 06:30:16;;;;;;;1.20;1.10;;;20.20;60.40;;;;;;5045004;28;43441;-62
2022/06/13 06:32:44;;;;;;;1.50;0.95;;;20.20;60.40;;;;;;5044746;28;43474;-63
2022/06/13 06:35:12;;;;;;;1.58;1.20;;;20.20;60.40;;;;;;5044621;28;43495;-63
2022/06/13 06:37:45;;;;;;;1.63;1.08;;;20.20;60.40;;;;;;5042693;28;44733;-62
2022/06/13 06:40:15;;;;;;;2.22;1.17;;;20.20;60.30;;;;;;5044012;28;43425;-63
2022/06/13 06:42:43;;;;;;;1.20;0.93;;;20.20;60.30;;;;;;5045261;28;43450;-63
2022/06/13 06:45:23;;;;;;;1.38;1.27;;;20.20;60.30;;;;;;5044345;28;43497;-63
2022/06/13 06:47:51;;;;;;;2.17;1.30;;;20.20;60.20;;;;;;5044081;28;44975;-63
2022/06/13 06:50:23;;;;;;;1.58;1.00;;;20.20;60.30;;;;;;5042552;28;43481;-62
2022/06/13 06:52:52;;;;;;;0.80;0.80;;;20.20;60.30;;;;;;5045472;28;43470;-62
2022/06/13 07:00:59;;;;;;;1.25;0.90;;;20.20;60.30;;;;;;5044071;28;44103;-63
2022/06/13 07:03:27;;;;;;;1.30;1.20;;;20.20;60.20;;;;;;5043195;28;43525;-63
2022/06/13 07:05:55;;;;;;;1.20;1.10;;;20.20;60.30;;;;;;5044316;28;43475;-63
2022/06/13 07:08:22;;;;;;;1.48;1.13;;;20.20;60.30;;;;;;5043585;28;43871;-63
2022/06/13 07:10:50;;;;;;;1.67;1.10;;;20.20;60.30;;;;;;5043740;28;43461;-62
2022/06/13 07:13:19;;;;;;;3.22;1.08;;;20.20;60.30;;;;;;5042956;28;43440;-63
2022/06/13 07:15:48;;;;;;;1.05;0.85;;;20.20;60.30;;;;;;5044263;28;43678;-64
2022/06/13 07:18:18;;;;;;;0.98;0.98;;;20.20;60.30;;;;;;5043527;28;45139;-62
2022/06/13 07:20:45;;;;;;;2.10;0.90;;;20.10;60.20;;;;;;5040116;28;44860;-63
2022/06/13 07:23:13;;;;;;;1.80;1.10;;;20.20;60.30;;;;;;5043079;28;43442;-63
2022/06/13 07:25:40;;;;;;;1.40;1.25;;;20.20;60.30;;;;;;5044813;28;43593;-62
2022/06/13 07:28:08;;;;;;;0.95;0.90;;;20.10;60.20;;;;;;5043395;28;44074;-63
2022/06/13 07:30:36;;;;;;;1.13;0.70;;;20.20;60.30;;;;;;5043220;28;43515;-63
2022/06/13 07:33:03;;;;;;;1.45;0.95;;;20.20;60.30;;;;;;5042718;28;43469;-63
2022/06/13 07:35:32;;;;;;;1.30;0.80;;;20.20;60.20;;;;;;5043714;28;43536;-63
2022/06/13 07:38:17;;;;;;;0.75;0.75;;;20.20;60.30;;;;;;5043459;28;44662;-62
2022/06/13 07:40:57;;;;;;;2.55;1.00;;;20.20;60.30;;;;;;5041415;28;43518;-63
2022/06/13 07:43:29;;;;;;;1.83;0.93;;;20.20;60.30;;;;;;5043512;28;43439;-63
2022/06/13 07:45:59;;;;;;;1.85;0.90;;;20.20;60.30;;;;;;5043146;28;43593;-62
2022/06/13 07:48:28;;;;;;;1.60;1.00;;;20.20;60.40;;;;;;5040967;28;44201;-63
2022/06/13 07:50:56;;;;;;;1.75;0.77;;;20.20;60.50;;;;;;5034914;28;43435;-63
2022/06/13 07:53:24;;;;;;;2.53;1.10;;;20.20;60.50;;;;;;5043009;28;43566;-63
2022/06/13 07:56:18;;;;;;;1.55;0.80;;;20.20;60.60;;;;;;5027761;28;43433;-62
2022/06/13 07:58:47;;;;;;;1.23;1.00;;;20.20;60.50;;;;;;5040126;28;44030;-62
2022/06/13 08:01:16;;;;;;;1.35;0.90;;;20.20;60.60;;;;;;5042872;28;43864;-62
2022/06/13 08:03:44;;;;;;;1.52;1.00;;;20.20;60.50;;;;;;5043003;28;44068;-63
2022/06/13 08:06:11;;;;;;;0.90;0.88;;;20.20;60.50;;;;;;5042108;28;43523;-62
2022/06/13 08:08:45;;;;;;;1.17;1.00;;;20.20;60.50;;;;;;5042927;28;44654;-62
2022/06/13 08:11:34;;;;;;;1.65;1.00;;;20.20;60.50;;;;;;5041486;28;43986;-63
2022/06/13 08:14:01;;;;;;;1.73;0.90;;;20.20;60.50;;;;;;5041805;28;43950;-62
2022/06/13 08:16:29;;;;;;;1.23;0.98;;;20.20;60.50;;;;;;5030180;28;43614;-63
2022/06/13 08:18:56;;;;;;;2.28;1.20;;;20.20;60.50;;;;;;5041924;28;44960;-63
2022/06/13 08:21:24;;;;;;;0.90;0.90;;;20.20;60.40;;;;;;5042684;28;43511;-62
2022/06/13 08:23:52;;;;;;;1.92;0.80;;;20.20;60.40;;;;;;5042267;28;43408;-62
2022/06/13 08:26:20;;;;;;;1.25;0.80;;;20.20;60.40;;;;;;5031097;28;43512;-63
2022/06/13 08:28:47;;;;;;;1.48;0.90;;;20.20;60.40;;;;;;5042423;28;43800;-62
2022/06/13 08:31:18;;;;;;;1.02;0.70;;;20.20;60.40;;;;;;5042543;28;43512;-62
2022/06/13 08:33:46;;;;;;;;;;;20.20;60.40;;;;;;5040280;28;43510;-63
2022/06/13 08:36:14;;;;;;;1.10;1.00;;;20.30;60.40;;;;;;5042643;28;43491;-62
2022/06/13 08:38:41;;;;;;;2.03;1.10;;;20.20;60.40;;;;;;5042279;28;43805;-62
2022/06/13 08:41:14;;;;;;;1.90;0.98;;;20.20;60.40;;;;;;5042725;28;43586;-62
2022/06/13 08:44:36;;;;;;;1.85;1.00;;;20.30;60.40;;;;;;5041752;28;43584;-62
2022/06/13 08:47:30;;;;;;;1.00;0.70;;;20.20;60.30;;;;;;4994434;28;43564;-62
2022/06/13 08:50:19;;;;;;;1.60;0.98;;;20.20;60.30;;;;;;5042227;28;43783;-62
2022/06/13 08:52:47;;;;;;;1.15;0.98;;;20.30;60.30;;;;;;5043122;28;43466;-62
2022/06/13 08:55:29;;;;;;;1.73;0.93;;;20.30;60.30;;;;;;5040294;28;43483;-62
2022/06/13 08:58:22;;;;;;;2.03;1.00;;;20.20;60.20;;;;;;5040323;28;43422;-63
2022/06/13 09:01:03;;;;;;;0.95;0.70;;;20.30;60.20;;;;;;5041266;28;43808;-62
2022/06/13 09:03:45;;;;;;;1.17;0.90;;;20.20;60.20;;;;;;5040974;28;43849;-62
2022/06/13 09:06:30;;;;;;;1.27;0.90;;;20.20;60.30;;;;;;5073860;28;43547;-62
2022/06/13 09:09:15;;;;;;;0.70;0.63;;;20.20;60.30;;;;;;5041292;28;43654;-62
2022/06/13 09:12:42;;;;;;;1.50;1.00;;;20.30;60.30;;;;;;5031948;28;43818;-63
2022/06/13 09:15:16;;;;;;;1.23;0.85;;;20.30;60.20;;;;;;5025886;28;43528;-62
2022/06/13 09:18:06;;;;;;;2.15;0.93;;;20.30;60.30;;;;;;5041152;28;43525;-62
2022/06/13 09:20:49;;;;;;;1.35;0.82;;;20.30;60.90;;;;;;5042828;28;43495;-62
2022/06/13 09:23:49;;;;;;;0.93;0.80;;;20.30;60.40;;;;;;5039476;28;44151;-62
2022/06/13 09:26:18;;;;;;;1.58;1.00;;;20.30;60.30;;;;;;4996095;28;43486;-62
2022/06/13 09:29:04;;;;;;;1.67;1.05;;;20.30;60.20;;;;;;5038678;28;43506;-63
2022/06/13 09:31:44;;;;;;;0.90;0.80;;;20.40;60.10;;;;;;5039861;28;43581;-62
2022/06/13 09:34:33;;;;;;;1.27;0.70;;;20.40;60.10;;;;;;5040240;28;44252;-62
2022/06/13 09:37:12;;;;;;;1.13;0.70;;;20.40;60.00;;;;;;5039514;28;43481;-62
2022/06/13 09:39:41;;;;;;;1.23;1.10;;;20.50;59.90;;;;;;5040090;28;43440;-62
2022/06/13 09:42:17;;;;;;;1.50;1.00;;;20.50;60.10;;;;;;5039170;28;43549;-62
2022/06/13 09:45:10;;;;;;;1.92;1.13;;;20.50;60.20;;;;;;5039220;28;44936;-62
2022/06/13 09:48:06;;;;;;;1.40;0.85;;;20.50;60.30;;;;;;5039374;28;43478;-62
2022/06/13 09:50:49;;;;;;;1.70;1.08;;;20.50;60.30;;;;;;5039177;28;43584;-62
2022/06/13 09:53:28;;;;;;;3.33;1.05;;;20.50;60.60;;;;;;5039714;28;43593;-62
2022/06/13 09:56:04;;;;;;;2.15;1.17;;;20.50;60.40;;;;;;5038018;28;44053;-62
2022/06/13 09:59:04;;;;;;;2.35;1.10;;;20.50;60.30;;;;;;5038912;28;44003;-63
2022/06/13 10:01:51;;;;;;;2.65;1.20;;;20.50;60.10;;;;;;5039493;28;43536;-63
2022/06/13 10:04:48;;;;;;;2.33;1.00;;;20.50;60.10;;;;;;5019400;28;43550;-63
2022/06/13 10:07:28;;;;;;;0.98;0.88;;;20.50;60.20;;;;;;5019588;28;43816;-62
2022/06/13 10:10:07;;;;;;;2.33;1.10;;;20.50;60.30;;;;;;5017437;28;43518;-62
2022/06/13 10:12:44;;;;;;;1.77;0.82;;;20.50;60.10;;;;;;5021729;28;43473;-62
2022/06/13 10:15:50;;;;;;;2.70;1.30;;;20.60;60.10;;;;;;5023583;28;43570;-62
2022/06/13 10:18:23;;;;;;;3.65;1.20;;;20.60;60.10;;;;;;5013010;28;43868;-63
2022/06/13 10:21:07;;;;;;;2.00;1.02;;;20.60;60.50;;;;;;5024213;28;43420;-62
2022/06/13 10:24:04;;;;;;;2.33;1.13;;;20.60;60.20;;;;;;5022424;28;43478;-62
2022/06/13 10:26:48;;;;;;;2.40;1.10;;;20.60;60.10;;;;;;5017517;28;43609;-62
2022/06/13 10:29:40;;;;;;;1.80;1.05;;;20.60;60.10;;;;;;5023642;28;43759;-62
2022/06/13 10:32:37;;;;;;;2.63;1.20;;;20.60;60.10;;;;;;5023368;28;43743;-62
2022/06/13 10:35:17;;;;;;;3.38;1.30;;;20.60;60.20;;;;;;5024761;28;43486;-62
2022/06/13 10:38:04;;;;;;;2.35;1.20;;;20.70;60.30;;;;;;5013981;28;43558;-62
2022/06/13 10:40:32;;;;;;;2.47;1.08;;;20.70;60.30;;;;;;5014522;28;44965;-62
2022/06/13 10:43:00;;;;;;;2.83;1.50;;;20.70;60.30;;;;;;5024416;28;44104;-62
2022/06/13 10:45:28;;;;;;;1.45;1.10;;;20.70;60.60;;;;;;5022924;28;43411;-62
2022/06/13 10:48:06;;;;;;;2.75;1.30;;;20.70;60.30;;;;;;5039706;28;43567;-63
2022/06/13 10:50:41;;;;;;;1.13;1.02;;;20.70;60.10;;;;;;5026680;28;43794;-62
2022/06/13 10:53:22;;;;;;;2.30;1.00;;;20.70;60.10;;;;;;5021005;28;43502;-62
2022/06/13 10:55:51;;;;;;;2.17;1.23;;;20.70;60.20;;;;;;5012539;28;43438;-61
2022/06/13 10:58:28;;;;;;;1.08;0.77;;;20.70;60.20;;;;;;5027503;28;43648;-62
2022/06/13 11:01:09;;;;;;;2.97;1.63;;;20.80;60.20;;;;;;5023508;28;44783;-62
2022/06/13 11:03:42;;;;;;;1.75;1.10;;;20.80;60.30;;;;;;5034900;28;45103;-63
2022/06/13 11:06:21;;;;;;;3.35;1.50;;;20.80;60.20;;;;;;5023618;28;43397;-62
2022/06/13 11:08:58;;;;;;;2.55;1.48;;;20.80;60.20;;;;;;5018782;28;43511;-62
2022/06/13 11:11:37;;;;;;;3.15;1.50;;;20.80;60.50;;;;;;5022822;28;44066;-63
2022/06/13 11:14:18;;;;;;;2.75;1.70;;;20.80;60.10;;;;;;5023657;28;43996;-63
2022/06/13 11:22:39;;;;;;;2.45;1.38;;;20.80;60.20;;;;;;5021120;28;44154;-62
2022/06/13 11:25:11;;;;;;;2.72;1.55;;;20.90;60.30;;;;;;5021147;28;44348;-62
2022/06/13 11:27:41;;;;;;;2.33;1.20;;;20.90;60.20;;;;;;5020993;28;43478;-62
2022/06/13 11:30:18;;;;;;;2.83;1.27;;;21.00;60.10;;;;;;5021557;28;43554;-62
2022/06/13 11:33:21;;;;;;;2.30;1.20;;;21.00;60.00;;;;;;5021991;28;44020;-62
2022/06/13 11:35:54;;;;;;;3.17;1.17;;;21.00;60.00;;;;;;5019612;28;43510;-62
2022/06/13 11:38:29;;;;;;;3.20;1.30;;;21.10;60.00;;;;;;5022411;28;43437;-63
2022/06/13 11:41:12;;;;;;;1.25;1.00;;;21.10;59.90;;;;;;5022907;28;43510;-62
2022/06/13 11:43:42;;;;;;;1.75;1.33;;;21.10;59.90;;;;;;5022218;28;44029;-62
2022/06/13 11:46:16;;;;;;;2.47;1.10;;;21.10;59.90;;;;;;5022637;28;43469;-62
2022/06/13 11:48:48;;;;;;;2.38;1.65;;;21.10;59.80;;;;;;5023846;28;43443;-62
2022/06/13 11:51:21;;;;;;;1.58;1.10;;;21.10;59.80;;;;;;5020376;28;43498;-62
2022/06/13 11:53:53;;;;;;;2.33;1.20;;;21.10;59.80;;;;;;5020962;28;44051;-62
2022/06/13 11:56:32;;;;;;;2.13;1.17;;;21.10;59.70;;;;;;5020165;28;43905;-62
2022/06/13 11:59:05;;;;;;;1.52;0.90;;;21.20;59.80;;;;;;5019831;28;43474;-62
2022/06/13 12:01:37;;;;;;;1.88;1.00;;;21.20;59.80;;;;;;5019968;28;43535;-62
2022/06/13 12:04:14;;;;;;;1.52;1.10;;;21.20;59.70;;;;;;5039918;28;44937;-62
2022/06/13 12:06:55;;;;;;;1.75;1.10;;;21.20;59.70;;;;;;5075165;27;43650;-62
2022/06/13 12:09:32;;;;;;;2.15;1.20;;;21.20;59.70;;;;;;5042595;28;43574;-62
2022/06/13 12:12:08;;;;;;;2.08;1.10;;;21.20;59.70;;;;;;5040756;28;44085;-62
2022/06/13 12:14:43;;;;;;;2.20;1.20;;;21.20;59.70;;;;;;5041460;28;44174;-63
2022/06/13 12:17:23;;;;;;;2.28;1.02;;;21.30;59.60;;;;;;5042179;28;43539;-63
2022/06/13 12:20:00;;;;;;;1.73;0.90;;;21.30;59.60;;;;;;5038784;28;43518;-62
2022/06/13 12:22:44;;;;;;;2.90;1.42;;;21.30;59.60;;;;;;5038449;28;44107;-63
2022/06/13 12:25:29;;;;;;;1.10;0.93;;;21.30;59.60;;;;;;5041352;28;44056;-63
2022/06/13 12:28:11;;;;;;;2.00;0.98;;;21.30;59.60;;;;;;5040371;28;43536;-62
2022/06/13 12:31:15;;;;;;;2.28;1.27;;;21.30;59.60;;;;;;5039314;28;43542;-63
2022/06/13 12:34:05;;;;;;;2.45;1.13;;;21.30;59.50;;;;;;5030548;28;43455;-64
2022/06/13 12:36:57;;;;;;;1.95;1.00;;;21.40;59.60;;;;;;5041654;28;43782;-62
2022/06/13 12:39:46;;;;;;;2.15;1.13;;;21.40;59.40;;;;;;5040942;28;43510;-63
2022/06/13 12:42:47;;;;;;;1.17;1.02;;;21.40;59.40;;;;;;5040135;28;43529;-62
2022/06/13 12:45:49;;;;;;;1.75;0.80;;;21.40;59.40;;;;;;5041269;28;43555;-62
2022/06/13 12:48:42;;;;;;;2.03;1.20;;;21.30;59.40;;;;;;5036677;28;44681;-62
2022/06/13 12:51:32;;;;;;;2.95;1.02;;;21.40;59.50;;;;;;5039584;28;43519;-62
2022/06/13 12:54:40;;;;;;;2.92;1.17;;;21.40;59.40;;;;;;5041505;28;43532;-62
2022/06/13 12:57:11;;;;;;;2.47;1.60;;;21.40;59.30;;;;;;5028331;28;43627;-63
2022/06/13 13:00:00;;;;;;;2.60;1.20;;;21.40;59.30;;;;;;5041114;28;43996;-63
2022/06/13 13:02:37;;;;;;;2.13;1.20;;;21.40;59.20;;;;;;5040805;28;43445;-63
2022/06/13 13:05:47;;;;;;;1.90;1.02;;;21.50;59.30;;;;;;5041007;28;43479;-62
2022/06/13 13:08:36;;;;;;;2.92;0.80;;;21.50;59.10;;;;;;5064032;28;43533;-63
2022/06/13 13:11:23;;;;;;;3.25;1.20;;;21.50;59.20;;;;;;5040002;28;44671;-63
2022/06/13 13:13:58;;;;;;;1.95;0.90;;;21.50;59.00;;;;;;5040903;28;43551;-63
2022/06/13 13:16:55;;;;;;;1.90;1.05;;;21.50;59.10;;;;;;5041459;28;43580;-63
2022/06/13 13:19:52;;;;;;;1.17;0.80;;;21.60;59.10;;;;;;5041445;28;43484;-62
2022/06/13 13:22:32;;;;;;;2.75;1.30;;;21.60;59.00;;;;;;5039268;28;43810;-63
2022/06/13 13:25:40;;;;;;;2.08;0.93;;;21.60;59.00;;;;;;5039849;28;44134;-62
2022/06/13 13:28:33;;;;;;;1.42;1.02;;;21.70;59.00;;;;;;5040386;28;43449;-62
2022/06/13 13:31:29;;;;;;;2.42;1.00;;;21.70;59.00;;;;;;5039903;28;43545;-63
2022/06/13 13:34:31;;;;;;;2.38;1.00;;;21.80;59.00;;;;;;5070098;28;43891;-62
2022/06/13 13:37:19;;;;;;;1.77;1.25;;;21.80;58.90;;;;;;5040547;28;43446;-63
2022/06/13 13:39:58;;;;;;;2.22;1.10;;;21.80;59.00;;;;;;5040804;28;43651;-62
2022/06/13 13:42:40;;;;;;;1.77;0.95;;;21.80;58.90;;;;;;5039812;28;43463;-62
2022/06/13 13:45:42;;;;;;;2.28;1.10;;;21.90;58.90;;;;;;5040392;28;43786;-62
2022/06/13 13:48:15;;;;;;;2.28;1.10;;;21.90;58.70;;;;;;5043040;28;43586;-62
2022/06/13 13:50:59;;;;;;;2.35;1.20;;;21.90;58.80;;;;;;5044062;28;43424;-63
2022/06/13 13:53:35;;;;;;;1.38;1.00;;;21.90;58.70;;;;;;5044371;28;44035;-63
2022/06/13 13:56:12;;;;;;;1.67;0.80;;;21.90;58.70;;;;;;5041939;28;44683;-63
2022/06/13 13:58:44;;;;;;;2.63;0.90;;;21.90;58.80;;;;;;5044745;28;43560;-63